createdAt,value
2022-09-20T00:01:32.428Z,102169.22
2022-09-20T00:04:05.344Z,102183.19
2022-09-20T00:06:34.727Z,102181.31
2022-09-20T00:09:03.581Z,102174.78
2022-09-20T00:11:35.838Z,102177.22
2022-09-20T00:14:08.572Z,102172.75
2022-09-20T00:16:39.542Z,102164.94
2022-09-20T00:19:08.336Z,102168.94
2022-09-20T00:21:37.987Z,102177.47
2022-09-20T00:24:06.852Z,102170.47
2022-09-20T00:26:36.572Z,102184.13
2022-09-20T00:29:05.584Z,102178.97
2022-09-20T00:31:33.714Z,102175.72
2022-09-20T00:34:19.357Z,102178.53
2022-09-20T00:36:47.398Z,102173.53
2022-09-20T00:39:16.768Z,102180.81
2022-09-20T00:41:46.636Z,102167.13
2022-09-20T00:44:43.780Z,102169.50
2022-09-20T00:47:19.848Z,102168.47
2022-09-20T00:49:48.125Z,102174.13
2022-09-20T00:52:17.076Z,102169.84
2022-09-20T00:54:45.475Z,102174.25
2022-09-20T00:57:15.131Z,102177.47
2022-09-20T00:59:48.291Z,102172.59
2022-09-20T01:02:20.336Z,102176.84
2022-09-20T01:04:49.991Z,102183.63
2022-09-20T01:07:23.250Z,102182.31
2022-09-20T01:09:52.276Z,102188.25
2022-09-20T01:12:24.849Z,102189.03
2022-09-20T01:14:54.587Z,102186.59
2022-09-20T01:17:26.685Z,102188.25
2022-09-20T01:20:09.276Z,102190.47
2022-09-20T01:22:48.321Z,102190.88
2022-09-20T01:25:19.236Z,102194.09
2022-09-20T01:27:52.085Z,102198.00
2022-09-20T01:30:22.100Z,102201.94
2022-09-20T01:33:11.121Z,102194.22
2022-09-20T01:35:42.475Z,102200.72
2022-09-20T01:38:23.251Z,102191.44
2022-09-20T01:41:00.981Z,102194.38
2022-09-20T01:43:36.390Z,102205.47
2022-09-20T01:46:15.290Z,102204.13
2022-09-20T01:48:43.961Z,102208.78
2022-09-20T01:51:53.885Z,102198.63
2022-09-20T01:55:00.400Z,102190.94
2022-09-20T01:58:19.050Z,102189.84
2022-09-20T02:01:07.209Z,102190.59
2022-09-20T02:03:58.864Z,102191.81
2022-09-20T02:06:51.804Z,102196.97
2022-09-20T02:09:47.493Z,102197.47
2022-09-20T02:12:33.519Z,102194.66
2022-09-20T02:15:10.165Z,102187.56
2022-09-20T02:17:50.978Z,102192.28
2022-09-20T02:20:34.375Z,102183.72
2022-09-20T02:23:22.517Z,102180.66
2022-09-20T02:26:07.017Z,102181.41
2022-09-20T02:28:53.267Z,102170.84
2022-09-20T02:31:34.911Z,102172.19
2022-09-20T02:34:26.600Z,102170.72
2022-09-20T02:37:13.015Z,102165.81
2022-09-20T02:39:55.712Z,102174.28
2022-09-20T02:42:30.949Z,102173.66
2022-09-20T02:45:08.389Z,102165.06
2022-09-20T02:47:39.073Z,102158.22
2022-09-20T02:50:24.246Z,102163.22
2022-09-20T02:53:06.901Z,102168.22
2022-09-20T02:55:43.540Z,102151.09
2022-09-20T02:58:26.657Z,102153.50
2022-09-20T03:01:01.202Z,102154.84
2022-09-20T03:03:41.257Z,102154.28
2022-09-20T03:06:19.867Z,102155.38
2022-09-20T03:08:55.396Z,102150.47
2022-09-20T03:11:31.826Z,102157.06
2022-09-20T03:14:23.365Z,102156.19
2022-09-20T03:17:07.129Z,102156.31
2022-09-20T03:19:50.276Z,102158.03
2022-09-20T03:22:32.985Z,102152.53
2022-09-20T03:25:23.259Z,102148.03
2022-09-20T03:28:00.790Z,102149.84
2022-09-20T03:30:42.577Z,102150.19
2022-09-20T03:33:23.246Z,102144.41
2022-09-20T03:36:04.250Z,102149.50
2022-09-20T03:38:50.377Z,102145.59
2022-09-20T03:41:42.333Z,102144.09
2022-09-20T03:44:25.542Z,102145.41
2022-09-20T03:47:04.940Z,102143.91
2022-09-20T03:49:54.858Z,102144.38
2022-09-20T03:52:51.435Z,102144.84
2022-09-20T03:55:55.610Z,102139.91
2022-09-20T03:58:44.571Z,102145.72
2022-09-20T04:01:32.707Z,102145.72
2022-09-20T04:04:09.142Z,102147.44
2022-09-20T04:06:56.495Z,102148.53
2022-09-20T04:09:47.543Z,102145.72
2022-09-20T04:12:27.196Z,102137.16
2022-09-20T04:15:07.067Z,102142.66
2022-09-20T04:17:44.229Z,102138.25
2022-09-20T04:20:21.922Z,102140.50
2022-09-20T04:22:55.846Z,102157.81
2022-09-20T04:25:30.392Z,102153.75
2022-09-20T04:28:05.964Z,102154.84
2022-09-20T04:30:44.082Z,102150.84
2022-09-20T04:33:20.615Z,102157.31
2022-09-20T04:36:35.235Z,102158.50
2022-09-20T04:39:16.991Z,102154.19
2022-09-20T04:42:35.838Z,102152.47
2022-09-20T04:45:51.543Z,102165.56
2022-09-20T04:48:57.230Z,102164.50
2022-09-20T04:52:16.136Z,102164.94
2022-09-20T04:55:36.369Z,102165.38
2022-09-20T04:58:37.327Z,102163.88
2022-09-20T05:01:40.728Z,102166.03
2022-09-20T05:04:42.180Z,102167.84
2022-09-20T05:07:48.603Z,102171.84
2022-09-20T05:10:38.673Z,102167.75
2022-09-20T05:13:22.136Z,102170.53
2022-09-20T05:15:59.578Z,102168.69
2022-09-20T05:19:07.669Z,102171.19
2022-09-20T05:21:55.214Z,102170.31
2022-09-20T05:24:40.707Z,102166.88
2022-09-20T05:27:29.302Z,102174.59
2022-09-20T05:30:06.652Z,102171.84
2022-09-20T05:32:44.565Z,102171.06
2022-09-20T05:35:24.114Z,102170.31
2022-09-20T05:38:01.966Z,102168.38
2022-09-20T05:40:37.164Z,102161.84
2022-09-20T05:43:12.091Z,102162.50
2022-09-20T05:45:58.873Z,102159.47
2022-09-20T05:48:36.093Z,102163.56
2022-09-20T05:51:15.540Z,102169.59
2022-09-20T05:54:05.958Z,102157.88
2022-09-20T05:56:46.728Z,102170.56
2022-09-20T05:59:27.296Z,102166.56
2022-09-20T06:02:20.517Z,102167.09
2022-09-20T06:05:01.468Z,102161.31
2022-09-20T06:07:46.040Z,102157.84
2022-09-20T06:10:34.996Z,102158.09
2022-09-20T06:13:21.455Z,102167.75
2022-09-20T06:15:56.074Z,102163.88
2022-09-20T06:18:29.525Z,102170.09
2022-09-20T06:21:06.266Z,102175.28
2022-09-20T06:23:37.162Z,102167.22
2022-09-20T06:26:10.673Z,102174.72
2022-09-20T06:28:42.645Z,102179.88
2022-09-20T06:31:12.156Z,102181.72
2022-09-20T06:33:47.245Z,102179.88
2022-09-20T06:36:36.754Z,102185.91
2022-09-20T06:39:35.540Z,102177.41
2022-09-20T06:42:03.734Z,102186.66
2022-09-20T06:44:31.940Z,102193.09
2022-09-20T06:47:00.334Z,102185.59
2022-09-20T06:49:29.306Z,102188.59
2022-09-20T06:51:57.581Z,102190.72
2022-09-20T06:54:27.984Z,102184.81
2022-09-20T06:56:56.239Z,102188.00
2022-09-20T06:59:24.525Z,102193.91
2022-09-20T07:01:52.791Z,102193.34
2022-09-20T07:04:22.209Z,102190.31
2022-09-20T07:06:50.263Z,102192.56
2022-09-20T07:09:18.540Z,102188.66
2022-09-20T07:11:48.052Z,102205.22
2022-09-20T07:14:16.379Z,102200.38
2022-09-20T07:16:44.578Z,102196.47
2022-09-20T07:19:12.775Z,102193.31
2022-09-20T07:21:40.856Z,102203.84
2022-09-20T07:24:08.938Z,102203.16
2022-09-20T07:26:37.352Z,102199.88
2022-09-20T07:29:06.879Z,102202.88
2022-09-20T07:31:34.920Z,102205.00
2022-09-20T07:34:03.067Z,102200.53
2022-09-20T07:36:31.090Z,102200.78
2022-09-20T07:38:59.162Z,102207.94
2022-09-20T07:41:29.445Z,102203.28
2022-09-20T07:44:17.676Z,102207.00
2022-09-20T07:46:48.759Z,102197.56
2022-09-20T07:49:17.440Z,102198.19
2022-09-20T07:51:45.749Z,102197.13
2022-09-20T07:54:13.854Z,102194.78
2022-09-20T07:56:42.196Z,102195.47
2022-09-20T07:59:11.396Z,102204.28
2022-09-20T08:01:39.638Z,102202.00
2022-09-20T08:04:09.738Z,102198.16
2022-09-20T08:06:38.659Z,102212.22
2022-09-20T08:09:10.924Z,102210.97
2022-09-20T08:11:40.683Z,102214.94
2022-09-20T08:14:09.518Z,102217.44
2022-09-20T08:16:41.031Z,102221.03
2022-09-20T08:19:15.498Z,102217.44
2022-09-20T08:21:44.481Z,102228.75
2022-09-20T08:24:13.063Z,102229.66
2022-09-20T08:26:41.628Z,102235.56
2022-09-20T08:29:09.993Z,102237.50
2022-09-20T08:31:42.401Z,102238.06
2022-09-20T08:34:15.263Z,102241.41
2022-09-20T08:36:46.896Z,102241.88
2022-09-20T08:42:15.142Z,102240.22
2022-09-20T08:45:00.449Z,102236.16
2022-09-20T08:47:32.515Z,102243.69
2022-09-20T08:50:11.561Z,102248.28
2022-09-20T08:52:42.499Z,102245.97
2022-09-20T08:55:17.505Z,102248.50
2022-09-20T08:57:50.370Z,102251.53
2022-09-20T09:00:21.137Z,102246.34
2022-09-20T09:02:51.929Z,102255.03
2022-09-20T09:05:33.316Z,102249.25
2022-09-20T09:08:04.622Z,102240.94
2022-09-20T09:10:43.412Z,102241.75
2022-09-20T09:13:19.757Z,102238.13
2022-09-20T09:15:52.894Z,102252.84
2022-09-20T09:18:21.140Z,102254.53
2022-09-20T09:20:53.010Z,102250.53
2022-09-20T09:23:27.257Z,102254.50
2022-09-20T09:25:56.682Z,102253.34
2022-09-20T09:28:31.520Z,102251.09
2022-09-20T09:31:16.233Z,102256.44
2022-09-20T09:33:47.642Z,102245.31
2022-09-20T09:36:19.183Z,102255.16
2022-09-20T09:38:48.205Z,102257.69
2022-09-20T09:41:26.563Z,102251.59
2022-09-20T09:44:06.683Z,102260.25
2022-09-20T09:46:36.887Z,102261.66
2022-09-20T09:49:12.056Z,102262.91
2022-09-20T09:51:44.299Z,102260.28
2022-09-20T09:54:19.877Z,102268.28
2022-09-20T09:57:06.142Z,102253.63
2022-09-20T09:59:45.510Z,102257.19
2022-09-20T10:02:30.931Z,102264.25
2022-09-20T10:05:05.676Z,102265.50
2022-09-20T10:07:45.046Z,102272.06
2022-09-20T10:10:27.563Z,102267.72
2022-09-20T10:13:11.032Z,102268.38
2022-09-20T10:15:43.045Z,102263.50
2022-09-20T10:18:26.765Z,102270.16
2022-09-20T10:21:08.119Z,102269.88
2022-09-20T10:24:03.041Z,102265.09
2022-09-20T10:26:49.068Z,102269.88
2022-09-20T10:29:26.374Z,102270.03
2022-09-20T10:32:02.074Z,102266.22
2022-09-20T10:35:14.355Z,102270.88
2022-09-20T10:37:55.235Z,102264.38
2022-09-20T10:40:48.467Z,102267.19
2022-09-20T10:43:29.390Z,102261.78
2022-09-20T10:46:30.705Z,102261.53
2022-09-20T10:49:04.880Z,102268.84
2022-09-20T10:51:43.318Z,102264.94
2022-09-20T10:54:27.438Z,102260.47
2022-09-20T10:57:10.086Z,102260.19
2022-09-20T10:59:48.341Z,102269.41
2022-09-20T11:02:37.190Z,102267.41
2022-09-20T11:05:21.421Z,102268.78
2022-09-20T11:08:03.850Z,102264.44
2022-09-20T11:10:37.472Z,102266.19
2022-09-20T11:13:12.478Z,102270.25
2022-09-20T11:15:45.910Z,102270.53
2022-09-20T11:18:23.266Z,102264.69
2022-09-20T11:20:58.849Z,102267.97
2022-09-20T11:23:35.023Z,102267.06
2022-09-20T11:26:13.321Z,102270.19
2022-09-20T11:28:49.126Z,102263.47
2022-09-20T11:31:24.852Z,102275.44
2022-09-20T11:33:57.776Z,102266.56
2022-09-20T11:36:32.612Z,102271.28
2022-09-20T11:39:04.871Z,102257.91
2022-09-20T11:41:33.574Z,102264.94
2022-09-20T11:44:08.212Z,102259.63
2022-09-20T11:46:43.619Z,102259.09
2022-09-20T11:49:17.813Z,102260.09
2022-09-20T11:52:22.702Z,102259.06
2022-09-20T11:55:08.491Z,102253.84
2022-09-20T11:57:36.696Z,102257.88
2022-09-20T12:00:10.240Z,102252.63
2022-09-20T12:02:46.625Z,102251.59
2022-09-20T12:05:28.028Z,102249.97
2022-09-20T12:07:57.811Z,102247.19
2022-09-20T12:10:28.232Z,102255.75
2022-09-20T12:13:01.113Z,102258.06
2022-09-20T12:15:33.521Z,102246.31
2022-09-20T12:18:27.486Z,102247.91
2022-09-20T12:21:16.457Z,102254.09
2022-09-20T12:24:21.995Z,102248.19
2022-09-20T12:26:52.232Z,102243.66
2022-09-20T12:30:03.971Z,102241.91
2022-09-20T12:32:42.629Z,102238.13
2022-09-20T12:35:56.498Z,102234.25
2022-09-20T12:38:49.470Z,102240.44
2022-09-20T12:41:28.277Z,102235.03
2022-09-20T12:44:04.038Z,102237.88
2022-09-20T12:46:51.125Z,102234.78
2022-09-20T12:49:58.289Z,102237.34
2022-09-20T12:52:48.330Z,102231.25
2022-09-20T12:55:31.629Z,102231.06
2022-09-20T12:58:06.226Z,102230.75
2022-09-20T13:00:39.614Z,102236.38
2022-09-20T13:03:24.691Z,102236.00
2022-09-20T13:06:25.154Z,102225.25
2022-09-20T13:08:59.379Z,102220.34
2022-09-20T13:11:31.817Z,102229.59
2022-09-20T13:14:04.923Z,102228.78
2022-09-20T13:16:47.656Z,102224.22
2022-09-20T13:19:18.757Z,102223.22
2022-09-20T13:21:56.494Z,102230.25
2022-09-20T13:24:27.416Z,102222.78
2022-09-20T13:27:01.902Z,102222.97
2022-09-20T13:29:35.448Z,102224.34
2022-09-20T13:32:17.546Z,102224.34
2022-09-20T13:34:46.894Z,102217.03
2022-09-20T13:37:23.869Z,102224.56
2022-09-20T13:39:56.133Z,102212.25
2022-09-20T13:42:24.658Z,102207.81
2022-09-20T13:44:53.545Z,102210.03
2022-09-20T13:47:27.603Z,102210.53
2022-09-20T13:50:02.808Z,102220.38
2022-09-20T13:52:33.438Z,102215.75
2022-09-20T13:55:01.694Z,102213.81
2022-09-20T13:57:31.533Z,102208.34
2022-09-20T14:00:01.799Z,102210.94
2022-09-20T14:02:32.998Z,102212.63
2022-09-20T14:05:03.413Z,102213.75
2022-09-20T14:07:36.515Z,102214.09
2022-09-20T14:10:05.293Z,102213.63
2022-09-20T14:12:36.110Z,102204.53
2022-09-20T14:15:10.056Z,102204.66
2022-09-20T14:17:38.568Z,102205.91
2022-09-20T14:20:08.416Z,102212.69
2022-09-20T14:22:38.110Z,102207.69
2022-09-20T14:25:25.527Z,102211.50
2022-09-20T14:28:08.450Z,102203.03
2022-09-20T14:30:38.214Z,102204.47
2022-09-20T14:33:16.262Z,102197.31
2022-09-20T14:35:49.796Z,102197.78
2022-09-20T14:38:24.702Z,102183.47
2022-09-20T14:40:53.146Z,102196.88
2022-09-20T14:43:28.032Z,102188.22
2022-09-20T14:45:58.692Z,102191.66
2022-09-20T14:48:36.460Z,102184.50
2022-09-20T14:51:25.252Z,102189.91
2022-09-20T14:54:15.306Z,102190.09
2022-09-20T14:56:49.537Z,102188.31
2022-09-20T14:59:27.342Z,102187.03
2022-09-20T15:02:05.190Z,102182.31
2022-09-20T15:04:35.485Z,102183.66
2022-09-20T15:07:04.638Z,102175.00
2022-09-20T15:09:35.381Z,102175.47
2022-09-20T15:12:05.763Z,102173.13
2022-09-20T15:14:37.934Z,102180.72
2022-09-20T15:17:06.784Z,102183.28
2022-09-20T15:19:34.999Z,102161.69
2022-09-20T15:22:03.362Z,102168.03
2022-09-20T15:24:31.493Z,102176.03
2022-09-20T15:27:01.111Z,102169.06
2022-09-20T15:29:29.568Z,102165.50
2022-09-20T15:31:58.061Z,102166.97
2022-09-20T15:34:26.099Z,102168.69
2022-09-20T15:36:54.757Z,102169.63
2022-09-20T15:39:24.639Z,102169.94
2022-09-20T15:41:53.242Z,102163.06
2022-09-20T15:44:22.831Z,102164.03
2022-09-20T15:46:53.420Z,102161.78
2022-09-20T15:49:22.329Z,102169.91
2022-09-20T15:51:50.650Z,102166.88
2022-09-20T15:54:18.768Z,102172.19
2022-09-20T15:56:46.989Z,102166.69
2022-09-20T15:59:16.481Z,102163.41
2022-09-20T16:01:48.219Z,102169.72
2022-09-20T16:04:19.397Z,102159.44
2022-09-20T16:06:50.298Z,102157.38
2022-09-20T16:09:19.504Z,102157.56
2022-09-20T16:11:48.301Z,102161.84
2022-09-20T16:14:16.742Z,102155.84
2022-09-20T16:16:46.278Z,102156.47
2022-09-20T16:19:20.800Z,102150.88
2022-09-20T16:21:57.742Z,102158.44
2022-09-20T16:24:27.397Z,102154.25
2022-09-20T16:26:55.971Z,102150.72
2022-09-20T16:29:25.843Z,102159.56
2022-09-20T16:31:57.725Z,102154.81
2022-09-20T16:34:30.321Z,102150.72
2022-09-20T16:36:59.828Z,102156.31
2022-09-20T16:39:28.822Z,102156.31
2022-09-20T16:42:00.047Z,102159.19
2022-09-20T16:44:28.063Z,102163.06
2022-09-20T16:46:57.638Z,102162.03
2022-09-20T16:49:29.586Z,102168.84
2022-09-20T16:51:57.667Z,102160.22
2022-09-20T16:54:31.027Z,102154.72
2022-09-20T16:57:00.063Z,102158.22
2022-09-20T16:59:28.143Z,102162.00
2022-09-20T17:01:58.171Z,102160.72
2022-09-20T17:04:26.423Z,102172.84
2022-09-20T17:06:54.559Z,102167.38
2022-09-20T17:09:22.477Z,102164.06
2022-09-20T17:11:52.089Z,102163.97
2022-09-20T17:14:22.312Z,102163.91
2022-09-20T17:16:51.270Z,102158.19
2022-09-20T17:19:22.029Z,102164.34
2022-09-20T17:21:51.509Z,102167.16
2022-09-20T17:24:20.438Z,102170.31
2022-09-20T17:26:49.028Z,102172.47
2022-09-20T17:29:18.649Z,102170.03
2022-09-20T17:31:54.139Z,102180.56
2022-09-20T17:34:26.034Z,102172.34
2022-09-20T17:36:55.844Z,102178.03
2022-09-20T17:39:24.422Z,102183.16
2022-09-20T17:41:52.930Z,102183.78
2022-09-20T17:44:21.278Z,102175.94
2022-09-20T17:46:51.121Z,102172.97
2022-09-20T17:49:20.604Z,102177.31
2022-09-20T17:51:52.001Z,102173.47
2022-09-20T17:54:20.965Z,102174.03
2022-09-20T17:56:51.083Z,102174.16
2022-09-20T17:59:21.544Z,102179.56
2022-09-20T18:01:51.306Z,102176.53
2022-09-20T18:04:21.060Z,102186.84
2022-09-20T18:06:52.461Z,102178.91
2022-09-20T18:09:22.890Z,102184.63
2022-09-20T18:11:53.107Z,102177.50
2022-09-20T18:14:23.505Z,102183.75
2022-09-20T18:16:53.546Z,102176.66
2022-09-20T18:19:23.010Z,102182.44
2022-09-20T18:21:52.841Z,102182.94
2022-09-20T18:24:20.839Z,102179.22
2022-09-20T18:26:48.802Z,102179.16
2022-09-20T18:29:19.240Z,102174.53
2022-09-20T18:31:49.193Z,102183.44
2022-09-20T18:34:18.878Z,102186.47
2022-09-20T18:36:53.186Z,102175.91
2022-09-20T18:39:23.247Z,102185.28
2022-09-20T18:41:52.441Z,102185.91
2022-09-20T18:44:21.095Z,102186.47
2022-09-20T18:46:49.652Z,102189.66
2022-09-20T18:49:17.850Z,102186.38
2022-09-20T18:51:47.458Z,102179.25
2022-09-20T18:54:15.911Z,102192.97
2022-09-20T18:56:48.920Z,102195.66
2022-09-20T18:59:18.932Z,102190.63
2022-09-20T19:02:13.613Z,102195.44
2022-09-20T19:05:17.445Z,102202.94
2022-09-20T19:07:55.333Z,102194.25
2022-09-20T19:10:30.054Z,102199.75
2022-09-20T19:13:06.489Z,102199.84
2022-09-20T19:15:57.942Z,102200.19
2022-09-20T19:19:07.535Z,102201.28
2022-09-20T19:21:42.868Z,102204.50
2022-09-20T19:24:24.264Z,102208.97
2022-09-20T19:26:53.102Z,102205.38
2022-09-20T19:29:25.371Z,102204.31
2022-09-20T19:31:55.766Z,102211.38
2022-09-20T19:34:25.809Z,102207.63
2022-09-20T19:37:03.214Z,102208.94
2022-09-20T19:39:45.475Z,102216.44
2022-09-20T19:42:21.347Z,102204.94
2022-09-20T19:45:02.013Z,102210.75
2022-09-20T19:47:38.516Z,102214.84
2022-09-20T19:50:17.218Z,102213.88
2022-09-20T19:52:46.334Z,102222.69
2022-09-20T19:55:15.640Z,102219.31
2022-09-20T19:57:47.105Z,102224.31
2022-09-20T20:00:19.980Z,102230.75
2022-09-20T20:02:48.891Z,102231.13
2022-09-20T20:05:19.036Z,102231.75
2022-09-20T20:07:55.885Z,102243.97
2022-09-20T20:10:29.639Z,102243.47
2022-09-20T20:13:04.394Z,102241.13
2022-09-20T20:15:43.611Z,102237.59
2022-09-20T20:18:23.025Z,102242.13
2022-09-20T20:20:53.935Z,102243.47
2022-09-20T20:23:47.879Z,102245.66
2022-09-20T20:26:22.240Z,102241.59
2022-09-20T20:28:50.834Z,102250.88
2022-09-20T20:31:20.576Z,102245.97
2022-09-20T20:33:48.560Z,102255.91
2022-09-20T20:36:18.083Z,102245.22
2022-09-20T20:38:50.007Z,102247.19
2022-09-20T20:41:20.502Z,102242.16
2022-09-20T20:43:49.780Z,102247.53
2022-09-20T20:46:20.218Z,102240.91
2022-09-20T20:48:48.551Z,102250.78
2022-09-20T20:51:18.882Z,102251.69
2022-09-20T20:53:49.191Z,102251.44
2022-09-20T20:56:19.468Z,102247.75
2022-09-20T20:58:49.500Z,102257.94
2022-09-20T21:01:19.676Z,102253.75
2022-09-20T21:03:50.847Z,102254.09
2022-09-20T21:06:19.315Z,102253.09
2022-09-20T21:08:50.067Z,102254.94
2022-09-20T21:11:23.485Z,102256.44
2022-09-20T21:13:51.674Z,102252.13
2022-09-20T21:16:21.613Z,102252.38
2022-09-20T21:18:52.021Z,102264.63
2022-09-20T21:21:22.416Z,102256.78
2022-09-20T21:23:52.609Z,102263.03
2022-09-20T21:26:22.064Z,102261.41
2022-09-20T21:28:53.269Z,102271.22
2022-09-20T21:31:22.827Z,102266.78
2022-09-20T21:33:52.300Z,102262.28
2022-09-20T21:36:23.038Z,102271.22
2022-09-20T21:38:51.187Z,102265.94
2022-09-20T21:41:22.193Z,102269.25
2022-09-20T21:43:53.154Z,102269.56
2022-09-20T21:46:22.551Z,102272.50
2022-09-20T21:48:52.362Z,102272.06
2022-09-20T21:51:21.797Z,102270.72
2022-09-20T21:53:54.040Z,102273.28
2022-09-20T21:56:22.091Z,102272.81
2022-09-20T21:58:50.099Z,102273.31
2022-09-20T22:01:20.033Z,102275.91
2022-09-20T22:03:49.388Z,102270.41
2022-09-20T22:06:20.978Z,102271.50
2022-09-20T22:08:51.861Z,102269.53
2022-09-20T22:11:21.991Z,102271.59
2022-09-20T22:13:51.831Z,102274.56
2022-09-20T22:16:21.498Z,102274.78
2022-09-20T22:18:49.884Z,102270.13
2022-09-20T22:21:21.776Z,102267.56
2022-09-20T22:23:51.040Z,102270.25
2022-09-20T22:26:22.166Z,102272.22
2022-09-20T22:28:51.691Z,102273.63
2022-09-20T22:31:21.906Z,102268.50
2022-09-20T22:33:51.557Z,102270.44
2022-09-20T22:36:22.672Z,102264.06
2022-09-20T22:38:51.134Z,102265.91
2022-09-20T22:41:20.819Z,102272.50
2022-09-20T22:43:48.969Z,102272.88
2022-09-20T22:46:18.344Z,102274.81
2022-09-20T22:48:46.810Z,102273.22
2022-09-20T22:51:16.716Z,102279.34
2022-09-20T22:53:47.571Z,102281.19
2022-09-20T22:56:17.885Z,102275.16
2022-09-20T22:58:48.008Z,102284.56
2022-09-20T23:01:17.940Z,102280.25
2022-09-20T23:03:47.953Z,102277.81
2022-09-20T23:06:17.420Z,102272.84
2022-09-20T23:08:46.797Z,102275.53
2022-09-20T23:11:16.507Z,102278.78
2022-09-20T23:13:45.186Z,102273.75
2022-09-20T23:16:15.132Z,102269.81
2022-09-20T23:18:43.303Z,102264.75
2022-09-20T23:21:11.790Z,102275.00
2022-09-20T23:23:43.347Z,102264.59
2022-09-20T23:26:14.729Z,102261.13
2022-09-20T23:28:44.545Z,102269.44
2022-09-20T23:31:14.519Z,102268.47
2022-09-20T23:33:48.945Z,102273.00
2022-09-20T23:36:18.907Z,102275.78
2022-09-20T23:38:47.645Z,102275.78
2022-09-20T23:41:20.776Z,102288.03
2022-09-20T23:43:49.802Z,102277.06
2022-09-20T23:46:19.955Z,102275.09
2022-09-20T23:48:48.267Z,102270.38
2022-09-20T23:51:18.348Z,102272.94
2022-09-20T23:53:46.396Z,102268.31
2022-09-20T23:56:16.495Z,102270.25
2022-09-20T23:58:45.553Z,102268.66
